Terminal Aerodrome Forecast
Issued by NWS

Home | Current Version | Previous Version | Text Only | Print | Product List | Glossary On
Versions: 1 2 3 4 5 6 7 8 9 10 11 12 13 14 15 16
000
FTUS45 KABQ 021740
TAFSAF
TAF
KSAF 021740Z 0218/0318 08009KT P6SM SCT050 BKN070
     FM022000 12015G23KT P6SM SCT035 BKN050
     FM030800 04011KT P6SM SCT010 BKN035
     FM031500 02009KT P6SM SCT020 SCT040=

USA.gov is the U.S. government's official web portal to all federal, state and local government web resources and services.